Time;durP1;ratioP1;P1;durP2;ratioP2;P2;SDS_P1;SDS_P2;PMS_P1;PMS_P2;Temp;Humidity;BMP_temperature;BMP_pressure;BME280_temperature;BME280_humidity;BME280_pressure;Samples;Min_cycle;Max_cycle;Signal;HPM_P1;HPM_P2
2023/04/19 00:00:20;;;;;;;8.60;7.23;;;9.00;99.90;;;;;;4970118;28;21214;-54
2023/04/19 00:02:48;;;;;;;7.17;6.47;;;9.00;99.90;;;;;;4974747;28;20207;-55
2023/04/19 00:05:17;;;;;;;13.17;7.00;;;9.00;99.90;;;;;;4969332;28;20231;-54
2023/04/19 00:07:44;;;;;;;10.77;8.47;;;9.00;99.90;;;;;;4970392;28;20203;-54
2023/04/19 00:10:11;;;;;;;10.40;6.90;;;9.00;99.90;;;;;;4971068;28;20232;-54
2023/04/19 00:12:38;;;;;;;7.53;6.63;;;9.10;99.90;;;;;;4970299;28;20204;-55
2023/04/19 00:15:06;;;;;;;6.67;5.97;;;9.00;99.90;;;;;;4971716;28;20223;-54
2023/04/19 00:17:34;;;;;;;7.60;6.87;;;8.90;99.90;;;;;;4970980;28;20677;-54
2023/04/19 00:20:01;;;;;;;6.50;5.90;;;8.90;99.90;;;;;;4971150;28;20587;-54
2023/04/19 00:22:29;;;;;;;9.23;7.27;;;8.90;99.90;;;;;;4971877;28;20211;-54
2023/04/19 00:24:56;;;;;;;7.07;5.87;;;8.80;99.90;;;;;;4971175;28;20222;-55
2023/04/19 00:27:23;;;;;;;11.13;7.37;;;8.80;99.90;;;;;;4969143;28;20586;-54
2023/04/19 00:29:50;;;;;;;8.33;6.73;;;8.80;99.90;;;;;;4969252;28;20660;-55
2023/04/19 00:32:17;;;;;;;9.53;7.17;;;8.70;99.90;;;;;;4971727;28;20282;-54
2023/04/19 00:34:44;;;;;;;8.00;6.77;;;8.70;99.90;;;;;;4971298;28;20230;-54
2023/04/19 00:37:11;;;;;;;6.73;6.17;;;8.60;99.90;;;;;;4969614;28;20262;-54
2023/04/19 00:39:39;;;;;;;9.13;7.37;;;8.60;99.90;;;;;;4969854;28;20656;-54
2023/04/19 00:42:06;;;;;;;7.47;6.77;;;8.50;99.90;;;;;;4970411;28;20292;-54
2023/04/19 00:44:33;;;;;;;6.27;5.57;;;8.50;99.90;;;;;;4971635;28;20205;-54
2023/04/19 00:47:01;;;;;;;7.73;6.77;;;8.40;99.90;;;;;;4970733;28;20232;-55
2023/04/19 00:49:28;;;;;;;7.97;6.73;;;8.40;99.90;;;;;;4970515;28;20258;-54
2023/04/19 00:51:55;;;;;;;7.03;6.23;;;8.40;99.90;;;;;;4970989;28;20219;-55
2023/04/19 00:54:23;;;;;;;7.10;6.40;;;8.30;99.90;;;;;;4966588;28;20263;-55
2023/04/19 00:56:51;;;;;;;6.97;6.17;;;8.30;99.90;;;;;;4971130;28;20269;-54
2023/04/19 00:59:19;;;;;;;5.80;5.30;;;8.20;99.90;;;;;;4970639;28;20206;-55
2023/04/19 01:01:46;;;;;;;7.60;6.37;;;8.20;99.90;;;;;;4969631;28;20269;-53
2023/04/19 01:04:13;;;;;;;7.20;6.17;;;8.20;99.90;;;;;;4968363;28;20210;-54
2023/04/19 01:06:41;;;;;;;7.33;6.63;;;8.20;99.90;;;;;;4969677;28;20718;-54
2023/04/19 01:09:08;;;;;;;7.67;6.67;;;8.10;99.90;;;;;;4970580;28;20623;-54
2023/04/19 01:11:35;;;;;;;5.93;5.43;;;8.10;99.90;;;;;;4962302;28;20227;-54
2023/04/19 01:14:04;;;;;;;6.80;6.10;;;8.00;99.90;;;;;;4971665;28;20192;-54
2023/04/19 01:16:32;;;;;;;7.87;6.17;;;8.00;99.90;;;;;;4969458;28;20599;-53
2023/04/19 01:18:59;;;;;;;7.10;6.37;;;8.00;99.90;;;;;;4971083;28;20202;-54
2023/04/19 01:21:28;;;;;;;7.70;6.90;;;8.00;99.90;;;;;;4971506;28;20316;-54
2023/04/19 01:23:56;;;;;;;8.10;6.53;;;8.00;99.90;;;;;;4971577;28;20203;-54
2023/04/19 01:26:23;;;;;;;6.73;6.07;;;8.00;99.90;;;;;;4970391;28;20301;-55
2023/04/19 01:28:50;;;;;;;8.00;6.90;;;8.10;99.90;;;;;;4967158;28;20253;-54
2023/04/19 01:31:17;;;;;;;8.40;6.63;;;8.10;99.90;;;;;;4970433;28;20222;-54
2023/04/19 01:33:44;;;;;;;9.87;8.10;;;8.10;99.90;;;;;;4969488;28;20222;-55
2023/04/19 01:36:11;;;;;;;9.73;7.97;;;8.10;99.90;;;;;;4970214;28;20239;-54
2023/04/19 01:38:38;;;;;;;11.63;7.30;;;8.10;99.90;;;;;;4968514;28;20276;-54
2023/04/19 01:41:07;;;;;;;10.17;7.27;;;8.10;99.90;;;;;;4969444;28;20214;-55
2023/04/19 01:43:34;;;;;;;8.47;7.53;;;8.10;99.90;;;;;;4969456;28;20664;-54
2023/04/19 01:46:01;;;;;;;8.80;7.83;;;8.10;99.90;;;;;;4969850;28;20305;-54
2023/04/19 01:48:28;;;;;;;9.80;7.37;;;8.00;99.90;;;;;;4969675;28;20285;-55
2023/04/19 01:50:55;;;;;;;9.73;8.07;;;8.00;99.90;;;;;;4971442;28;20276;-54
2023/04/19 01:53:22;;;;;;;9.60;8.30;;;8.00;99.90;;;;;;4969056;28;20615;-55
2023/04/19 01:55:50;;;;;;;9.30;7.67;;;8.10;99.90;;;;;;4965948;28;20274;-54
2023/04/19 01:58:18;;;;;;;8.13;7.33;;;8.10;99.90;;;;;;4970011;28;20206;-54
2023/04/19 02:00:45;;;;;;;11.07;8.27;;;8.10;99.90;;;;;;4969227;28;20206;-54
2023/04/19 02:03:12;;;;;;;9.13;7.77;;;8.10;99.90;;;;;;4971387;28;20636;-55
2023/04/19 02:05:39;;;;;;;8.93;8.07;;;8.20;99.90;;;;;;4968346;28;20231;-54
2023/04/19 02:08:06;;;;;;;9.17;7.40;;;8.10;99.90;;;;;;4969931;28;20266;-54
2023/04/19 02:10:33;;;;;;;11.30;8.10;;;8.10;99.90;;;;;;4970135;28;20249;-54
2023/04/19 02:13:00;;;;;;;10.07;7.77;;;8.10;99.90;;;;;;4969280;28;20199;-54
2023/04/19 02:15:29;;;;;;;10.93;7.57;;;8.30;99.90;;;;;;4968390;28;20313;-54
2023/04/19 02:17:56;;;;;;;9.17;7.70;;;8.20;99.90;;;;;;4968786;28;20210;-54
2023/04/19 02:20:23;;;;;;;9.47;7.80;;;8.20;99.90;;;;;;4969469;28;20285;-55
2023/04/19 02:22:50;;;;;;;11.57;8.63;;;8.30;99.90;;;;;;4970435;28;20289;-55
2023/04/19 02:25:18;;;;;;;10.10;8.23;;;8.30;99.90;;;;;;4968620;28;20807;-54
2023/04/19 02:27:45;;;;;;;10.77;8.63;;;8.30;99.90;;;;;;4968921;28;20198;-55
2023/04/19 02:30:12;;;;;;;9.93;8.50;;;8.40;99.90;;;;;;4968784;28;20210;-54
2023/04/19 02:32:41;;;;;;;9.57;8.53;;;8.40;99.90;;;;;;4968706;28;20690;-53
2023/04/19 02:35:08;;;;;;;11.53;9.90;;;8.50;99.90;;;;;;4968570;28;20235;-54
2023/04/19 02:37:35;;;;;;;9.60;8.60;;;8.60;99.90;;;;;;4965122;28;20985;-55
2023/04/19 02:40:04;;;;;;;10.33;7.73;;;8.60;99.90;;;;;;4969034;28;20609;-54
2023/04/19 02:42:30;;;;;;;11.00;8.83;;;8.50;99.90;;;;;;4968149;28;20195;-54
2023/04/19 02:44:58;;;;;;;12.70;9.07;;;8.60;99.90;;;;;;4966120;28;20254;-54
2023/04/19 02:47:24;;;;;;;12.90;10.03;;;8.60;99.90;;;;;;4967180;28;20257;-55
2023/04/19 02:49:53;;;;;;;11.23;8.43;;;8.60;99.90;;;;;;4970537;28;20273;-54
2023/04/19 02:52:20;;;;;;;10.53;8.37;;;8.60;99.90;;;;;;4968913;28;20716;-54
2023/04/19 02:54:47;;;;;;;11.23;8.97;;;8.60;99.90;;;;;;4966406;28;20624;-54
2023/04/19 02:57:14;;;;;;;12.73;9.60;;;8.60;99.90;;;;;;4967566;28;20285;-55
2023/04/19 02:59:40;;;;;;;11.43;9.93;;;8.60;99.90;;;;;;4962585;28;20269;-54
2023/04/19 03:02:07;;;;;;;11.80;9.47;;;8.60;99.90;;;;;;4966624;28;20207;-55
2023/04/19 03:04:35;;;;;;;11.80;9.53;;;8.60;99.90;;;;;;4974129;28;20317;-56
2023/04/19 03:07:03;;;;;;;12.10;9.77;;;8.70;99.90;;;;;;4973088;28;20215;-54
2023/04/19 03:09:30;;;;;;;9.97;8.93;;;8.70;99.90;;;;;;4972140;28;20636;-55
2023/04/19 03:11:57;;;;;;;11.33;9.40;;;8.80;99.90;;;;;;4970873;28;20222;-54
2023/04/19 03:14:24;;;;;;;11.10;9.23;;;8.80;99.90;;;;;;4971811;28;20214;-55
2023/04/19 03:16:51;;;;;;;13.20;8.67;;;8.80;99.90;;;;;;4973122;28;20288;-54
2023/04/19 03:19:18;;;;;;;13.93;9.73;;;8.90;99.90;;;;;;4972698;28;20233;-54
2023/04/19 03:21:45;;;;;;;12.60;10.37;;;8.80;99.90;;;;;;4971173;28;20199;-54
2023/04/19 03:24:13;;;;;;;12.83;9.47;;;8.80;99.90;;;;;;4972483;28;20211;-55
2023/04/19 03:26:40;;;;;;;10.07;8.70;;;8.80;99.90;;;;;;4972435;28;20761;-55
2023/04/19 03:29:07;;;;;;;10.43;9.03;;;8.80;99.90;;;;;;4972134;28;20214;-54
2023/04/19 03:31:34;;;;;;;10.70;9.57;;;8.80;99.90;;;;;;4971569;28;20221;-55
2023/04/19 03:34:01;;;;;;;12.23;9.60;;;8.80;99.90;;;;;;4971451;28;20237;-54
2023/04/19 03:36:28;;;;;;;12.80;9.03;;;8.80;99.90;;;;;;4971382;28;20725;-54
2023/04/19 03:38:55;;;;;;;12.10;9.50;;;8.70;99.90;;;;;;4972727;28;20217;-54
2023/04/19 03:41:26;;;;;;;12.23;9.70;;;8.80;99.90;;;;;;4971237;28;20203;-54
2023/04/19 03:43:53;;;;;;;11.40;9.00;;;8.80;99.90;;;;;;4972375;28;20208;-55
2023/04/19 03:46:20;;;;;;;11.30;9.63;;;8.80;99.90;;;;;;4970741;28;20230;-54
2023/04/19 03:48:48;;;;;;;13.20;9.10;;;8.80;99.90;;;;;;4971498;28;20203;-55
2023/04/19 03:51:15;;;;;;;11.63;8.17;;;8.80;99.90;;;;;;4971689;28;20216;-54
2023/04/19 03:53:43;;;;;;;13.77;9.63;;;8.70;99.90;;;;;;4974336;28;20598;-55
2023/04/19 03:56:10;;;;;;;11.93;9.60;;;8.70;99.90;;;;;;4972539;28;20230;-53
2023/04/19 03:58:38;;;;;;;9.20;8.30;;;8.70;99.90;;;;;;4969759;28;20237;-54
2023/04/19 04:01:07;;;;;;;9.87;8.77;;;8.70;99.90;;;;;;4967980;28;20254;-55
2023/04/19 04:03:34;;;;;;;12.43;9.20;;;8.70;99.90;;;;;;4966099;28;20208;-53
2023/04/19 04:06:01;;;;;;;14.13;10.23;;;8.70;99.90;;;;;;4967024;28;20227;-54
2023/04/19 04:08:28;;;;;;;10.00;8.47;;;8.70;99.90;;;;;;4971437;28;20233;-54
2023/04/19 04:10:55;;;;;;;12.57;10.20;;;8.70;99.90;;;;;;4972756;28;20229;-54
2023/04/19 04:13:22;;;;;;;14.23;10.47;;;8.60;99.90;;;;;;4972443;28;20225;-56
2023/04/19 04:15:51;;;;;;;10.40;8.70;;;8.60;99.90;;;;;;4970036;28;20278;-54
2023/04/19 04:18:18;;;;;;;13.77;10.63;;;8.60;99.90;;;;;;4975377;28;20730;-54
2023/04/19 04:20:45;;;;;;;11.40;9.47;;;8.60;99.90;;;;;;4971286;28;20272;-54
2023/04/19 04:23:13;;;;;;;13.73;9.90;;;8.60;99.90;;;;;;4973580;28;20253;-56
2023/04/19 04:25:41;;;;;;;10.90;9.03;;;8.60;99.90;;;;;;4978666;28;20274;-55
2023/04/19 04:28:08;;;;;;;10.47;8.87;;;8.60;99.90;;;;;;4990779;28;20210;-55
2023/04/19 04:30:35;;;;;;;14.43;10.10;;;8.60;99.90;;;;;;4983664;28;20312;-54
2023/04/19 04:33:04;;;;;;;14.27;10.07;;;8.70;99.90;;;;;;4978927;28;20230;-54
2023/04/19 04:35:31;;;;;;;11.90;9.23;;;8.70;99.90;;;;;;4981667;28;20288;-54
2023/04/19 04:37:58;;;;;;;10.67;8.83;;;8.80;99.90;;;;;;4989975;28;20192;-54
2023/04/19 04:40:25;;;;;;;12.33;9.67;;;8.80;99.90;;;;;;4978708;28;20574;-55
2023/04/19 04:42:53;;;;;;;12.37;9.27;;;8.80;99.90;;;;;;4983155;28;20269;-54
2023/04/19 04:45:20;;;;;;;11.07;9.80;;;8.90;99.90;;;;;;4973792;28;20570;-55
2023/04/19 04:47:46;;;;;;;10.67;8.93;;;8.80;99.90;;;;;;4976218;28;20208;-55
2023/04/19 04:50:15;;;;;;;12.27;9.27;;;8.90;99.90;;;;;;4974646;28;20269;-54
2023/04/19 04:52:42;;;;;;;12.77;10.73;;;8.90;99.90;;;;;;4979235;28;20335;-54
2023/04/19 04:55:09;;;;;;;13.17;9.87;;;8.90;99.90;;;;;;4972676;28;20230;-54
2023/04/19 04:57:36;;;;;;;13.87;10.17;;;8.90;99.90;;;;;;4979786;28;20213;-54
2023/04/19 05:00:05;;;;;;;13.73;10.30;;;8.90;99.90;;;;;;4988507;28;20678;-54
2023/04/19 05:02:32;;;;;;;13.27;10.17;;;9.00;99.90;;;;;;4970609;28;20195;-54
2023/04/19 05:04:59;;;;;;;12.87;9.43;;;9.00;99.90;;;;;;4978644;28;20226;-55
2023/04/19 05:07:28;;;;;;;13.43;10.27;;;9.00;99.90;;;;;;4985051;28;20207;-54
2023/04/19 05:09:55;;;;;;;14.07;10.23;;;9.00;99.90;;;;;;4977610;28;20199;-54
2023/04/19 05:12:21;;;;;;;14.43;10.03;;;9.10;99.90;;;;;;4974142;28;20310;-54
2023/04/19 05:14:48;;;;;;;13.00;10.10;;;9.10;99.90;;;;;;4989672;28;20656;-54
2023/04/19 05:17:15;;;;;;;13.67;9.90;;;9.20;99.90;;;;;;4976974;28;20212;-55
2023/04/19 05:19:43;;;;;;;14.00;10.40;;;9.20;99.90;;;;;;4975776;28;20206;-55
2023/04/19 05:22:10;;;;;;;11.53;9.43;;;9.20;99.90;;;;;;4975447;28;20212;-54
2023/04/19 05:24:38;;;;;;;10.07;9.07;;;9.30;99.90;;;;;;4967148;28;20310;-54
2023/04/19 05:27:05;;;;;;;11.37;9.23;;;9.40;99.90;;;;;;4971374;28;20199;-55
2023/04/19 05:29:32;;;;;;;15.67;10.93;;;9.50;99.90;;;;;;4969329;28;20286;-54
2023/04/19 05:31:59;;;;;;;13.40;10.83;;;9.50;99.90;;;;;;4981790;28;20222;-54
2023/04/19 05:34:26;;;;;;;13.77;10.07;;;9.40;99.90;;;;;;4973921;28;20208;-54
2023/04/19 05:36:53;;;;;;;14.13;10.03;;;9.30;99.90;;;;;;4974244;28;20215;-54
2023/04/19 05:39:20;;;;;;;12.23;9.70;;;9.30;99.90;;;;;;4969234;28;20210;-54
2023/04/19 05:41:48;;;;;;;15.70;10.57;;;9.30;99.90;;;;;;4976577;28;20243;-55
2023/04/19 05:44:16;;;;;;;14.10;10.83;;;9.30;99.90;;;;;;4977612;28;20210;-55
2023/04/19 05:46:43;;;;;;;15.07;9.80;;;9.30;99.90;;;;;;4976032;28;20257;-54
2023/04/19 05:49:10;;;;;;;12.63;10.13;;;9.30;99.90;;;;;;4970861;28;20212;-55
2023/04/19 05:51:37;;;;;;;12.93;9.53;;;9.40;99.90;;;;;;4970783;28;20200;-54
2023/04/19 05:56:34;;;;;;;19.50;11.30;;;10.60;99.90;;;;;;4989000;23;20249;-58
2023/04/19 05:59:03;;;;;;;14.27;10.73;;;9.50;99.90;;;;;;4967487;28;20688;-57
2023/04/19 06:01:30;;;;;;;12.20;10.17;;;9.60;99.90;;;;;;4972668;28;20205;-57
2023/04/19 06:03:57;;;;;;;15.17;11.40;;;9.70;99.90;;;;;;4972471;28;20211;-57
2023/04/19 06:06:24;;;;;;;16.53;11.07;;;9.70;99.90;;;;;;4958014;28;20221;-57
2023/04/19 06:08:51;;;;;;;15.60;10.33;;;9.70;99.90;;;;;;4946239;29;20657;-57
2023/04/19 06:11:18;;;;;;;14.53;11.30;;;9.70;99.90;;;;;;4950175;29;20199;-56
2023/04/19 06:13:46;;;;;;;13.80;10.27;;;9.80;99.90;;;;;;4953667;28;20637;-57
2023/04/19 06:16:14;;;;;;;13.13;11.80;;;9.90;99.90;;;;;;4950004;29;20224;-57
2023/04/19 06:18:46;;;;;;;15.63;10.80;;;10.00;99.90;;;;;;4945817;29;20199;-57
2023/04/19 06:21:13;;;;;;;12.63;10.77;;;10.00;99.90;;;;;;4953577;28;20396;-56
2023/04/19 06:23:40;;;;;;;14.57;10.27;;;10.10;99.90;;;;;;4952662;29;20191;-57
2023/04/19 06:26:07;;;;;;;14.43;11.97;;;10.10;99.90;;;;;;4953151;29;20231;-56
2023/04/19 06:28:34;;;;;;;22.63;20.33;;;10.20;99.90;;;;;;4953429;29;20211;-56
2023/04/19 06:31:02;;;;;;;14.17;11.80;;;10.20;99.90;;;;;;4953841;28;20729;-57
2023/04/19 06:33:31;;;;;;;44.87;40.80;;;10.10;99.90;;;;;;4945568;29;20236;-57
2023/04/19 06:35:58;;;;;;;19.33;14.97;;;10.20;99.90;;;;;;4944492;29;20288;-57
2023/04/19 06:38:29;;;;;;;14.07;9.73;;;10.30;99.90;;;;;;4959855;28;20258;-57
2023/04/19 06:40:56;;;;;;;17.08;12.43;;;10.40;99.90;;;;;;4952066;28;20546;-56
2023/04/19 06:43:25;;;;;;;14.37;10.90;;;10.40;99.90;;;;;;4952749;29;20673;-57
2023/04/19 06:45:58;;;;;;;14.33;11.00;;;10.30;99.90;;;;;;4951763;28;20274;-57
2023/04/19 06:48:29;;;;;;;12.53;10.47;;;10.30;99.90;;;;;;4945415;29;20204;-56
2023/04/19 06:50:57;;;;;;;13.03;10.10;;;10.30;99.90;;;;;;4937802;29;20277;-56
2023/04/19 06:53:23;;;;;;;16.20;11.17;;;10.30;99.90;;;;;;4942517;28;20236;-56
2023/04/19 06:55:58;;;;;;;11.40;9.60;;;10.30;99.90;;;;;;4963539;28;20226;-57
2023/04/19 06:58:24;;;;;;;11.53;9.73;;;10.40;99.90;;;;;;4955489;29;20210;-56
2023/04/19 07:00:52;;;;;;;12.43;10.17;;;10.50;99.90;;;;;;4956163;29;20212;-56
2023/04/19 07:03:19;;;;;;;10.03;8.77;;;10.60;99.90;;;;;;4958654;28;20215;-57
2023/04/19 07:05:47;;;;;;;11.87;9.30;;;10.50;99.90;;;;;;4968648;28;20221;-57
2023/04/19 07:08:14;;;;;;;13.80;10.60;;;10.50;99.90;;;;;;4955649;29;20239;-57
2023/04/19 07:10:42;;;;;;;12.40;9.57;;;10.60;99.90;;;;;;4958669;28;20204;-67
2023/04/19 07:13:10;;;;;;;14.23;9.87;;;10.60;99.90;;;;;;4958892;28;20601;-60
2023/04/19 07:15:37;;;;;;;11.20;9.07;;;10.70;99.90;;;;;;4955921;29;20250;-55
2023/04/19 07:18:04;;;;;;;10.63;8.73;;;10.70;99.90;;;;;;4956085;29;20574;-58
2023/04/19 07:20:31;;;;;;;12.50;9.57;;;10.70;99.90;;;;;;4960591;28;20212;-56
2023/04/19 07:23:00;;;;;;;12.10;10.07;;;10.70;99.90;;;;;;4975541;28;20250;-57
2023/04/19 07:25:27;;;;;;;12.13;8.80;;;10.80;99.90;;;;;;4975580;28;20224;-58
2023/04/19 07:27:55;;;;;;;10.80;7.83;;;10.90;99.90;;;;;;4962058;28;20208;-59
2023/04/19 07:30:22;;;;;;;9.50;8.50;;;10.90;99.90;;;;;;4952327;29;20201;-58
2023/04/19 07:32:50;;;;;;;13.67;9.90;;;10.80;99.90;;;;;;4953263;29;20708;-60
2023/04/19 07:35:18;;;;;;;15.63;10.33;;;10.90;99.90;;;;;;4953680;29;20227;-58
2023/04/19 07:37:45;;;;;;;11.13;10.00;;;10.80;99.90;;;;;;4952271;29;20207;-60
2023/04/19 07:40:14;;;;;;;14.80;10.13;;;10.80;99.90;;;;;;4956074;28;20627;-56
2023/04/19 07:42:43;;;;;;;11.53;8.63;;;10.90;99.90;;;;;;4954303;29;20197;-57
2023/04/19 07:45:11;;;;;;;12.67;9.80;;;10.90;99.90;;;;;;4955790;28;20224;-58
2023/04/19 07:47:38;;;;;;;13.07;10.03;;;11.10;99.90;;;;;;4954906;29;20204;-60
2023/04/19 07:50:06;;;;;;;13.20;9.80;;;11.00;99.90;;;;;;4955342;29;20203;-59
2023/04/19 07:52:33;;;;;;;10.80;9.70;;;11.10;99.90;;;;;;4952812;28;20225;-60
2023/04/19 07:55:00;;;;;;;10.20;8.83;;;11.10;99.90;;;;;;4953296;28;20284;-58
2023/04/19 07:57:28;;;;;;;11.53;10.23;;;11.10;99.90;;;;;;4949384;29;20302;-59
2023/04/19 07:59:58;;;;;;;12.57;9.37;;;11.20;99.90;;;;;;4945859;29;20233;-60
2023/04/19 08:02:26;;;;;;;17.37;10.33;;;11.30;99.90;;;;;;4946730;29;20216;-58
2023/04/19 08:04:53;;;;;;;10.13;9.07;;;11.20;99.90;;;;;;4947212;29;20247;-59
2023/04/19 08:07:22;;;;;;;14.57;10.33;;;11.20;99.90;;;;;;4944725;29;20209;-60
2023/04/19 08:09:49;;;;;;;12.07;10.07;;;11.30;99.90;;;;;;4947480;29;20691;-60
2023/04/19 08:12:17;;;;;;;10.97;9.83;;;11.40;99.90;;;;;;4947942;28;20278;-60
2023/04/19 08:14:46;;;;;;;11.57;9.50;;;11.40;99.90;;;;;;4945103;29;20255;-61
2023/04/19 08:17:15;;;;;;;9.93;8.60;;;11.50;99.90;;;;;;4947752;29;20298;-61
2023/04/19 08:19:42;;;;;;;14.07;10.27;;;11.70;99.90;;;;;;4940360;29;20206;-60
2023/04/19 08:22:09;;;;;;;12.37;9.57;;;11.90;99.90;;;;;;4938904;29;20254;-59
2023/04/19 08:24:36;;;;;;;10.53;9.27;;;11.90;99.90;;;;;;4941055;29;20777;-60
2023/04/19 08:27:03;;;;;;;9.73;8.67;;;12.00;99.90;;;;;;4944404;29;20299;-62
2023/04/19 08:29:30;;;;;;;12.33;9.80;;;12.10;99.90;;;;;;4952536;28;20592;-60
2023/04/19 08:31:58;;;;;;;13.57;9.17;;;12.20;99.90;;;;;;4947799;29;20208;-59
2023/04/19 08:34:25;;;;;;;10.80;9.53;;;12.40;99.90;;;;;;4948806;29;20225;-59
2023/04/19 08:36:52;;;;;;;10.30;9.13;;;12.50;99.90;;;;;;4949392;29;20253;-59
2023/04/19 08:39:19;;;;;;;10.40;8.63;;;12.70;99.90;;;;;;4951869;29;20275;-58
2023/04/19 08:41:48;;;;;;;12.63;9.50;;;12.70;99.90;;;;;;4951377;29;20748;-57
2023/04/19 08:44:16;;;;;;;8.83;7.60;;;12.80;99.90;;;;;;4946398;29;20665;-61
2023/04/19 08:46:44;;;;;;;12.10;10.40;;;12.90;99.90;;;;;;4946361;29;20225;-58
2023/04/19 08:49:12;;;;;;;9.60;8.60;;;12.90;99.90;;;;;;4950084;29;20264;-60
2023/04/19 08:51:40;;;;;;;10.40;9.43;;;13.00;99.90;;;;;;4942870;29;20202;-59
2023/04/19 08:54:08;;;;;;;13.17;9.50;;;13.20;99.90;;;;;;4942120;29;20232;-60
2023/04/19 08:56:35;;;;;;;9.90;8.57;;;13.20;99.90;;;;;;4946063;29;20241;-59
2023/04/19 08:59:02;;;;;;;9.70;8.00;;;13.20;99.90;;;;;;4953671;29;20263;-59
2023/04/19 09:01:29;;;;;;;10.70;9.53;;;13.40;99.90;;;;;;4949709;29;20216;-59
2023/04/19 09:03:56;;;;;;;10.70;8.70;;;13.60;99.90;;;;;;4943501;28;20671;-59
2023/04/19 09:06:25;;;;;;;10.57;8.97;;;13.60;99.90;;;;;;4946569;29;20256;-61
2023/04/19 09:08:57;;;;;;;9.73;8.73;;;13.70;99.90;;;;;;4944829;29;20224;-58
2023/04/19 09:11:37;;;;;;;10.97;8.37;;;13.90;99.90;;;;;;4946487;29;20231;-58
2023/04/19 09:14:08;;;;;;;10.20;8.50;;;14.00;99.90;;;;;;4946352;29;20342;-60
2023/04/19 09:16:36;;;;;;;10.77;9.50;;;14.20;99.90;;;;;;4946893;29;20371;-59
2023/04/19 09:19:03;;;;;;;12.37;10.40;;;14.40;99.90;;;;;;4952684;29;20208;-60
2023/04/19 09:21:33;;;;;;;11.00;9.20;;;14.30;99.90;;;;;;4950576;29;20197;-60
2023/04/19 09:24:00;;;;;;;15.60;9.00;;;14.30;99.90;;;;;;4945931;29;20200;-60
2023/04/19 09:26:28;;;;;;;11.13;9.27;;;14.10;99.90;;;;;;4951796;29;20252;-59
2023/04/19 09:28:59;;;;;;;13.10;8.87;;;14.00;99.90;;;;;;4949920;29;20211;-58
2023/04/19 09:31:28;;;;;;;11.13;8.37;;;13.90;99.90;;;;;;4952059;29;20213;-59
2023/04/19 09:33:56;;;;;;;9.33;8.33;;;13.90;99.90;;;;;;4948179;29;20227;-57
2023/04/19 09:36:34;;;;;;;13.10;8.93;;;13.70;99.90;;;;;;4945449;28;20363;-60
2023/04/19 09:39:01;;;;;;;8.13;7.30;;;13.50;99.90;;;;;;4945688;29;20209;-60
2023/04/19 09:41:28;;;;;;;10.60;9.40;;;13.40;99.90;;;;;;4945168;29;20629;-60
2023/04/19 09:44:10;;;;;;;12.90;8.83;;;13.40;99.90;;;;;;4944052;29;20208;-59
2023/04/19 09:46:37;;;;;;;10.57;8.23;;;13.50;99.90;;;;;;4945674;29;20199;-58
2023/04/19 09:49:19;;;;;;;9.17;8.13;;;13.60;99.90;;;;;;4945833;29;20264;-62
2023/04/19 09:51:49;;;;;;;8.37;7.63;;;13.70;99.90;;;;;;4948990;29;20681;-58
2023/04/19 09:54:17;;;;;;;8.07;7.23;;;13.80;99.90;;;;;;4943277;29;20425;-57
2023/04/19 09:56:45;;;;;;;8.80;7.90;;;13.70;99.90;;;;;;4950740;29;20205;-58
2023/04/19 09:59:13;;;;;;;9.93;8.93;;;13.60;99.90;;;;;;4949663;29;20206;-58
2023/04/19 10:01:43;;;;;;;11.47;8.37;;;13.60;99.90;;;;;;4943387;29;20204;-59
2023/04/19 10:04:11;;;;;;;8.53;7.43;;;13.80;99.90;;;;;;4950976;29;20204;-55
2023/04/19 10:06:39;;;;;;;9.20;7.27;;;13.80;99.90;;;;;;4951938;29;20210;-59
2023/04/19 10:09:09;;;;;;;8.53;6.57;;;13.90;99.90;;;;;;4944690;29;20207;-58
2023/04/19 10:11:38;;;;;;;7.57;6.87;;;13.80;99.90;;;;;;4948382;29;20559;-57
2023/04/19 10:14:07;;;;;;;7.07;6.37;;;13.70;99.90;;;;;;4952006;28;20221;-56
2023/04/19 10:16:36;;;;;;;8.27;7.03;;;13.70;99.90;;;;;;4955157;29;20775;-59
2023/04/19 10:19:06;;;;;;;7.20;6.50;;;13.80;99.90;;;;;;4953310;29;20208;-59
2023/04/19 10:21:33;;;;;;;8.37;7.40;;;14.00;99.90;;;;;;4949038;29;20208;-56
2023/04/19 10:24:01;;;;;;;6.67;5.97;;;14.20;99.90;;;;;;4954615;29;20582;-58
2023/04/19 10:26:29;;;;;;;8.33;7.63;;;14.40;99.90;;;;;;4953197;29;20221;-60
2023/04/19 10:28:57;;;;;;;7.23;6.63;;;14.40;99.90;;;;;;4952899;29;20267;-58
2023/04/19 10:31:26;;;;;;;7.47;6.63;;;14.50;99.90;;;;;;4948686;28;20211;-55
2023/04/19 10:33:53;;;;;;;9.10;7.00;;;14.60;99.90;;;;;;4951811;28;20217;-54
2023/04/19 10:36:21;;;;;;;8.27;6.83;;;14.60;99.90;;;;;;4953656;28;20220;-54
2023/04/19 10:38:52;;;;;;;6.20;5.60;;;14.60;99.90;;;;;;4955040;28;20205;-54
2023/04/19 10:41:20;;;;;;;7.20;6.50;;;14.90;99.90;;;;;;4962011;28;20259;-54
2023/04/19 10:44:09;;;;;;;7.43;5.80;;;14.80;99.90;;;;;;4956361;28;20208;-52
2023/04/19 10:46:40;;;;;;;7.00;5.83;;;15.40;99.90;;;;;;4952944;28;20268;-53
2023/04/19 10:49:10;;;;;;;8.50;7.53;;;15.50;99.90;;;;;;4959408;28;20896;-52
2023/04/19 10:51:41;;;;;;;6.90;6.30;;;15.60;99.90;;;;;;4954167;28;20197;-53
2023/04/19 10:54:09;;;;;;;9.20;6.67;;;15.80;99.90;;;;;;4955819;28;20217;-52
2023/04/19 10:56:58;;;;;;;7.20;6.53;;;16.00;99.90;;;;;;4973689;28;20312;-53
2023/04/19 10:59:26;;;;;;;6.80;6.03;;;15.90;99.90;;;;;;4949987;28;20209;-59
2023/04/19 11:01:55;;;;;;;7.53;6.77;;;15.90;99.90;;;;;;4957418;28;20217;-59
2023/04/19 11:04:44;;;;;;;6.90;6.40;;;15.70;99.90;;;;;;4955670;28;20610;-61
2023/04/19 11:07:11;;;;;;;8.00;7.27;;;15.60;99.90;;;;;;4954878;28;20284;-61
2023/04/19 11:09:41;;;;;;;8.50;6.90;;;15.80;99.90;;;;;;4960175;28;20194;-61
2023/04/19 11:12:10;;;;;;;6.60;6.00;;;16.00;99.90;;;;;;4974171;28;20253;-57
2023/04/19 11:14:41;;;;;;;6.33;5.80;;;16.00;99.90;;;;;;4972019;28;20224;-61
2023/04/19 11:17:16;;;;;;;6.80;5.83;;;15.90;99.90;;;;;;4955712;28;20260;-60
2023/04/19 11:19:44;;;;;;;7.30;6.60;;;16.10;99.90;;;;;;4962131;28;20204;-62
2023/04/19 11:22:11;;;;;;;6.30;5.80;;;16.10;99.90;;;;;;4960409;28;20205;-58
2023/04/19 11:24:38;;;;;;;6.10;5.70;;;15.60;99.90;;;;;;4970886;28;20216;-58
2023/04/19 11:27:09;;;;;;;7.00;5.90;;;15.60;99.90;;;;;;4957957;28;20272;-58
2023/04/19 11:29:37;;;;;;;5.87;5.37;;;15.50;99.90;;;;;;4954263;28;20228;-60
2023/04/19 11:32:05;;;;;;;5.73;5.20;;;15.00;99.90;;;;;;4973279;28;20201;-56
2023/04/19 11:34:36;;;;;;;6.53;5.90;;;14.90;99.90;;;;;;4963261;28;20237;-56
2023/04/19 11:37:03;;;;;;;6.07;5.27;;;14.60;99.90;;;;;;4961832;28;20205;-57
2023/04/19 11:39:30;;;;;;;5.83;5.33;;;14.40;99.90;;;;;;4963085;28;20625;-57
2023/04/19 11:41:58;;;;;;;7.17;6.47;;;14.60;99.90;;;;;;4973140;28;20760;-56
2023/04/19 11:44:25;;;;;;;7.17;6.27;;;14.50;99.90;;;;;;4962977;28;20666;-58
2023/04/19 11:47:03;;;;;;;6.87;6.17;;;14.70;99.90;;;;;;4962826;28;20204;-58
2023/04/19 11:49:32;;;;;;;8.23;7.50;;;14.90;99.90;;;;;;4955369;28;20196;-61
2023/04/19 11:52:01;;;;;;;7.80;6.80;;;15.20;99.90;;;;;;4955380;28;20200;-58
2023/04/19 11:54:28;;;;;;;6.70;6.13;;;15.40;99.90;;;;;;4959551;28;20224;-59
2023/04/19 11:56:59;;;;;;;6.67;6.07;;;15.30;99.90;;;;;;4964244;28;20363;-60
2023/04/19 11:59:26;;;;;;;7.30;6.63;;;15.10;99.90;;;;;;4972990;28;20201;-60
2023/04/19 12:01:53;;;;;;;8.07;7.27;;;15.10;99.90;;;;;;4972709;28;20203;-56
2023/04/19 12:04:22;;;;;;;8.53;7.40;;;14.90;99.90;;;;;;4962927;28;20200;-60
2023/04/19 12:06:57;;;;;;;8.37;7.43;;;15.00;99.90;;;;;;4985474;23;20239;-65
2023/04/19 12:09:24;;;;;;;10.30;8.57;;;14.80;99.90;;;;;;4974638;28;20229;-64
2023/04/19 12:11:51;;;;;;;8.27;7.43;;;14.60;99.90;;;;;;4980295;28;20259;-66
2023/04/19 12:14:20;;;;;;;8.27;7.47;;;14.80;99.90;;;;;;4980009;28;20592;-65
2023/04/19 12:17:06;;;;;;;8.43;7.63;;;14.90;99.90;;;;;;4973986;28;20256;-68
2023/04/19 12:19:37;;;;;;;10.17;8.00;;;15.20;99.90;;;;;;4971216;28;20205;-61
2023/04/19 12:22:12;;;;;;;7.93;7.13;;;15.40;99.90;;;;;;4981346;28;20219;-66
2023/04/19 12:24:40;;;;;;;10.63;9.33;;;15.40;99.90;;;;;;4971169;28;20250;-64
2023/04/19 12:27:07;;;;;;;10.50;9.33;;;15.50;99.90;;;;;;4976250;28;20735;-54
2023/04/19 12:29:34;;;;;;;11.73;10.53;;;15.60;99.90;;;;;;4982611;28;20196;-53
2023/04/19 12:32:02;;;;;;;11.33;9.50;;;15.70;99.90;;;;;;4982820;28;20203;-53
2023/04/19 12:34:28;;;;;;;11.50;9.93;;;15.50;99.90;;;;;;4992691;28;20222;-54
2023/04/19 12:36:57;;;;;;;12.17;10.53;;;15.20;99.90;;;;;;4992168;28;20216;-54
2023/04/19 12:39:24;;;;;;;11.53;10.33;;;15.40;99.90;;;;;;4985254;28;20204;-53
2023/04/19 12:41:51;;;;;;;11.90;9.80;;;15.20;99.90;;;;;;4983312;28;20192;-54
2023/04/19 12:44:18;;;;;;;12.40;10.03;;;15.20;99.90;;;;;;4981073;28;20204;-54
2023/04/19 12:46:45;;;;;;;12.27;10.03;;;15.30;99.90;;;;;;4973735;28;20243;-54
2023/04/19 12:49:12;;;;;;;13.57;10.83;;;15.10;99.90;;;;;;4971385;28;20264;-53